createdAt,value
2018-11-29T00:00:45.874Z,12.03
2018-11-29T00:03:20.584Z,11.20
2018-11-29T00:05:55.863Z,12.83
2018-11-29T00:08:30.800Z,13.10
2018-11-29T00:11:06.738Z,14.97
2018-11-29T00:13:41.568Z,12.17
2018-11-29T00:16:16.675Z,11.97
2018-11-29T00:18:52.355Z,10.90
2018-11-29T00:21:27.044Z,11.53
2018-11-29T00:24:01.930Z,11.13
2018-11-29T00:26:36.741Z,12.67
2018-11-29T00:29:11.644Z,12.03
2018-11-29T00:31:46.309Z,12.30
2018-11-29T00:34:21.567Z,11.70
2018-11-29T00:36:56.454Z,11.57
2018-11-29T00:39:31.460Z,11.50
2018-11-29T00:42:06.350Z,16.03
2018-11-29T00:44:41.184Z,13.43
2018-11-29T00:47:16.060Z,10.97
2018-11-29T00:49:50.761Z,11.83
2018-11-29T00:52:25.443Z,10.57
2018-11-29T00:55:00.529Z,11.20
2018-11-29T00:57:35.476Z,11.43
2018-11-29T01:00:17.988Z,12.80
2018-11-29T01:02:52.933Z,11.70
2018-11-29T01:05:27.840Z,11.50
2018-11-29T01:08:03.510Z,12.03
2018-11-29T01:10:38.257Z,11.03
2018-11-29T01:13:12.954Z,11.03
2018-11-29T01:15:47.893Z,12.53
2018-11-29T01:18:22.869Z,10.30
2018-11-29T01:20:57.543Z,12.83
2018-11-29T01:23:32.417Z,10.80
2018-11-29T01:26:07.128Z,10.13
2018-11-29T01:28:41.842Z,12.43
2018-11-29T01:31:16.678Z,11.83
2018-11-29T01:33:54.794Z,11.07
2018-11-29T01:36:29.844Z,12.80
2018-11-29T01:39:06.641Z,11.63
2018-11-29T01:41:41.302Z,12.00
2018-11-29T01:44:16.107Z,11.80
2018-11-29T01:46:50.796Z,13.40
2018-11-29T01:49:25.594Z,10.80
2018-11-29T01:52:00.340Z,10.60
2018-11-29T01:54:35.208Z,11.77
2018-11-29T01:57:09.971Z,11.70
2018-11-29T01:59:44.856Z,13.57
2018-11-29T02:02:19.741Z,11.60
2018-11-29T02:04:54.656Z,11.20
2018-11-29T02:07:29.884Z,11.50
2018-11-29T02:10:10.891Z,10.60
2018-11-29T02:12:52.228Z,12.50
2018-11-29T02:15:26.917Z,12.10
2018-11-29T02:18:01.554Z,10.97
2018-11-29T02:20:37.022Z,12.47
2018-11-29T02:23:11.793Z,11.77
2018-11-29T02:25:46.632Z,10.87
2018-11-29T02:28:21.535Z,11.60
2018-11-29T02:30:56.356Z,10.97
2018-11-29T02:33:30.899Z,12.77
2018-11-29T02:36:05.927Z,14.23
2018-11-29T02:38:40.686Z,12.83
2018-11-29T02:41:15.552Z,14.03
2018-11-29T02:43:50.154Z,11.87
2018-11-29T02:46:25.013Z,11.90
2018-11-29T02:48:59.828Z,13.40
2018-11-29T02:51:34.609Z,12.50
2018-11-29T02:54:09.417Z,13.87
2018-11-29T02:56:44.247Z,13.17
2018-11-29T02:59:19.074Z,12.93
2018-11-29T03:01:53.756Z,13.17
2018-11-29T03:04:28.358Z,12.90
2018-11-29T03:07:03.703Z,14.60
2018-11-29T03:09:38.584Z,13.17
2018-11-29T03:12:13.483Z,15.20
2018-11-29T03:14:48.324Z,14.23
2018-11-29T03:17:23.359Z,14.90
2018-11-29T03:19:58.304Z,14.83
2018-11-29T03:22:33.200Z,15.10
2018-11-29T03:25:12.191Z,14.83
2018-11-29T03:27:46.978Z,15.30
2018-11-29T03:30:21.880Z,14.23
2018-11-29T03:32:56.546Z,15.70
2018-11-29T03:35:31.359Z,14.50
2018-11-29T03:38:06.690Z,16.10
2018-11-29T03:40:41.863Z,14.23
2018-11-29T03:43:16.663Z,14.30
2018-11-29T03:45:51.409Z,16.10
2018-11-29T03:48:26.451Z,15.77
2018-11-29T03:51:01.385Z,14.87
2018-11-29T03:53:36.165Z,15.33
2018-11-29T03:56:11.119Z,16.20
2018-11-29T03:58:45.937Z,16.23
2018-11-29T04:01:20.766Z,17.70
2018-11-29T04:03:55.789Z,15.77
2018-11-29T04:06:30.552Z,15.30
2018-11-29T04:09:09.636Z,19.20
2018-11-29T04:11:44.570Z,15.37
2018-11-29T04:14:19.258Z,18.17
2018-11-29T04:16:54.089Z,15.40
2018-11-29T04:19:29.101Z,16.13
2018-11-29T04:22:03.984Z,15.10
2018-11-29T04:24:38.920Z,14.93
2018-11-29T04:27:13.844Z,16.67
2018-11-29T04:29:48.779Z,18.17
2018-11-29T04:32:23.387Z,17.50
2018-11-29T04:34:58.103Z,16.90
2018-11-29T04:37:32.966Z,15.93
2018-11-29T04:40:16.556Z,16.27
2018-11-29T04:42:51.417Z,17.80
2018-11-29T04:45:31.644Z,17.83
2018-11-29T04:48:09.960Z,16.50
2018-11-29T04:50:41.561Z,18.27
2018-11-29T04:53:10.742Z,16.67
2018-11-29T04:55:45.955Z,15.90
2018-11-29T04:58:20.698Z,16.97
2018-11-29T05:00:55.865Z,17.67
2018-11-29T05:03:30.782Z,18.10
2018-11-29T05:06:05.850Z,17.53
2018-11-29T05:08:40.679Z,17.00
2018-11-29T05:11:15.604Z,19.50
2018-11-29T05:13:50.845Z,18.87
2018-11-29T05:16:25.702Z,19.67
2018-11-29T05:19:00.388Z,20.80
2018-11-29T05:21:35.288Z,19.27
2018-11-29T05:24:10.136Z,19.43
2018-11-29T05:26:45.212Z,19.80
2018-11-29T05:29:20.199Z,18.83
2018-11-29T05:31:55.088Z,19.90
2018-11-29T05:34:29.929Z,21.20
2018-11-29T05:37:05.254Z,23.23
2018-11-29T05:39:37.861Z,22.80
2018-11-29T05:42:12.903Z,23.57
2018-11-29T05:44:47.798Z,23.43
2018-11-29T05:47:18.592Z,21.83
2018-11-29T05:49:53.717Z,21.50
2018-11-29T05:52:28.443Z,19.80
2018-11-29T05:55:03.806Z,26.57
2018-11-29T05:57:38.859Z,26.43
2018-11-29T06:00:21.915Z,25.20
2018-11-29T06:02:50.978Z,23.20
2018-11-29T06:05:20.364Z,25.53
2018-11-29T06:07:49.663Z,23.80
2018-11-29T06:10:20.457Z,23.03
2018-11-29T06:12:50.741Z,24.63
2018-11-29T06:15:21.737Z,23.93
2018-11-29T06:17:56.938Z,22.47
2018-11-29T06:20:26.164Z,24.40
2018-11-29T06:22:56.551Z,24.00
2018-11-29T06:25:25.825Z,24.30
2018-11-29T06:27:55.638Z,23.33
2018-11-29T06:30:24.834Z,23.80
2018-11-29T06:32:54.099Z,24.67
2018-11-29T06:35:26.556Z,21.40
2018-11-29T06:37:55.816Z,23.50
2018-11-29T06:40:24.950Z,22.30
2018-11-29T06:43:01.124Z,21.83
2018-11-29T06:45:36.063Z,21.77
2018-11-29T06:48:10.835Z,23.80
2018-11-29T06:50:45.930Z,22.63
2018-11-29T06:53:25.888Z,22.20
2018-11-29T06:56:00.876Z,22.00
2018-11-29T06:58:35.882Z,21.00
2018-11-29T07:01:10.652Z,23.03
2018-11-29T07:03:45.565Z,22.13
2018-11-29T07:06:20.348Z,24.77
2018-11-29T07:08:55.177Z,22.40
2018-11-29T07:11:30.111Z,21.63
2018-11-29T07:14:05.199Z,20.70
2018-11-29T07:16:40.288Z,23.10
2018-11-29T07:19:15.211Z,21.20
2018-11-29T07:21:52.024Z,17.80
2018-11-29T07:24:26.864Z,25.03
2018-11-29T07:27:01.765Z,20.20
2018-11-29T07:29:36.731Z,17.20
2018-11-29T07:32:13.683Z,18.40
2018-11-29T07:34:48.400Z,20.70
2018-11-29T07:37:23.520Z,20.10
2018-11-29T07:39:58.261Z,18.07
2018-11-29T07:42:33.239Z,18.23
2018-11-29T07:45:17.971Z,18.57
2018-11-29T07:47:52.858Z,19.03
2018-11-29T07:50:28.317Z,16.77
2018-11-29T07:53:03.574Z,20.60
2018-11-29T07:55:38.384Z,20.60
2018-11-29T07:58:13.133Z,20.77
2018-11-29T08:00:48.099Z,21.10
2018-11-29T08:03:23.081Z,18.87
2018-11-29T08:05:57.872Z,18.03
2018-11-29T08:08:32.672Z,18.23
2018-11-29T08:11:07.849Z,17.90
2018-11-29T08:13:42.827Z,20.63
2018-11-29T08:16:17.853Z,20.13
2018-11-29T08:18:57.522Z,20.87
2018-11-29T08:21:32.522Z,19.63
2018-11-29T08:24:07.479Z,18.77
2018-11-29T08:26:42.388Z,20.80
2018-11-29T08:29:17.201Z,21.60
2018-11-29T08:31:51.875Z,21.27
2018-11-29T08:34:27.042Z,19.90
2018-11-29T08:37:01.976Z,23.37
2018-11-29T08:39:36.959Z,22.40
2018-11-29T08:42:11.957Z,19.47
2018-11-29T08:44:47.277Z,19.00
2018-11-29T08:47:22.092Z,23.00
2018-11-29T08:49:57.013Z,22.03
2018-11-29T08:52:34.099Z,22.97
2018-11-29T08:55:13.492Z,18.80
2018-11-29T08:57:49.536Z,25.57
2018-11-29T09:00:24.511Z,22.63
2018-11-29T09:02:59.391Z,22.27
2018-11-29T09:05:34.329Z,26.40
2018-11-29T09:08:09.172Z,23.43
2018-11-29T09:10:44.113Z,23.50
2018-11-29T09:13:18.926Z,22.77
2018-11-29T09:15:53.748Z,23.63
2018-11-29T09:18:28.591Z,22.37
2018-11-29T09:21:03.447Z,23.87
2018-11-29T09:23:38.500Z,24.27
2018-11-29T09:26:13.556Z,23.70
2018-11-29T09:28:48.652Z,23.47
2018-11-29T09:31:23.463Z,22.40
2018-11-29T09:33:58.384Z,23.00
2018-11-29T09:36:33.052Z,25.83
2018-11-29T09:39:09.235Z,20.90
2018-11-29T09:41:44.582Z,24.70
2018-11-29T09:44:19.591Z,24.27
2018-11-29T09:46:54.240Z,25.03
2018-11-29T09:49:28.948Z,24.93
2018-11-29T09:52:03.892Z,24.87
2018-11-29T09:54:38.948Z,23.57
2018-11-29T09:57:13.799Z,28.17
2018-11-29T09:59:48.751Z,26.77
2018-11-29T10:02:23.754Z,26.80
2018-11-29T10:04:58.345Z,23.97
2018-11-29T10:07:33.108Z,24.57
2018-11-29T10:10:10.286Z,27.73
2018-11-29T10:12:44.945Z,26.90
2018-11-29T10:15:19.776Z,26.57
2018-11-29T10:17:55.181Z,26.40
2018-11-29T10:20:30.113Z,24.53
2018-11-29T10:23:05.159Z,26.30
2018-11-29T10:25:41.231Z,26.77
2018-11-29T10:28:16.852Z,27.30
2018-11-29T10:30:57.069Z,23.43
2018-11-29T10:33:31.847Z,24.07
2018-11-29T10:36:06.764Z,30.40
2018-11-29T10:38:41.726Z,28.90
2018-11-29T10:41:16.753Z,25.40
2018-11-29T10:43:51.644Z,28.20
2018-11-29T10:46:26.473Z,27.47
2018-11-29T10:49:01.473Z,25.87
2018-11-29T10:51:36.291Z,25.07
2018-11-29T10:54:11.360Z,28.53
2018-11-29T10:56:46.333Z,26.53
2018-11-29T10:59:21.255Z,30.97
2018-11-29T11:02:01.448Z,28.57
2018-11-29T11:04:36.111Z,28.77
2018-11-29T11:07:11.283Z,29.40
2018-11-29T11:09:46.217Z,29.77
2018-11-29T11:12:21.165Z,31.90
2018-11-29T11:14:56.238Z,29.70
2018-11-29T11:17:31.000Z,35.00
2018-11-29T11:20:06.300Z,29.20
2018-11-29T11:22:41.194Z,27.63
2018-11-29T11:25:16.251Z,29.50
2018-11-29T11:27:50.920Z,32.00
2018-11-29T11:30:26.089Z,30.97
2018-11-29T11:33:01.452Z,33.87
2018-11-29T11:35:36.456Z,40.63
2018-11-29T11:38:11.251Z,30.20
2018-11-29T11:40:46.161Z,30.33
2018-11-29T11:43:21.392Z,33.97
2018-11-29T11:45:56.123Z,33.43
2018-11-29T11:48:31.125Z,33.30
2018-11-29T11:51:06.444Z,37.50
2018-11-29T11:53:41.462Z,33.93
2018-11-29T11:56:16.268Z,33.80
2018-11-29T11:58:51.159Z,34.37
2018-11-29T12:01:26.090Z,34.30
2018-11-29T12:04:01.095Z,34.57
2018-11-29T12:06:35.831Z,32.80
2018-11-29T12:09:10.815Z,34.10
2018-11-29T12:11:45.758Z,40.07
2018-11-29T12:14:20.573Z,36.57
2018-11-29T12:16:55.422Z,31.87
2018-11-29T12:19:30.378Z,30.50
2018-11-29T12:22:05.987Z,29.47
2018-11-29T12:24:40.928Z,28.73
2018-11-29T12:27:16.585Z,29.30
2018-11-29T12:29:51.783Z,29.03
2018-11-29T12:32:26.469Z,29.17
2018-11-29T12:35:01.289Z,29.43
2018-11-29T12:37:36.248Z,34.77
2018-11-29T12:40:12.316Z,30.93
2018-11-29T12:42:47.143Z,32.30
2018-11-29T12:45:22.060Z,32.07
2018-11-29T12:47:56.890Z,27.77
2018-11-29T12:50:31.786Z,28.43
2018-11-29T12:53:07.087Z,28.63
2018-11-29T12:55:43.607Z,30.90
2018-11-29T12:58:18.748Z,33.37
2018-11-29T13:00:53.723Z,35.87
2018-11-29T13:03:28.663Z,30.50
2018-11-29T13:06:03.762Z,29.80
2018-11-29T13:08:38.523Z,33.10
2018-11-29T13:11:13.388Z,32.07
2018-11-29T13:13:48.621Z,30.67
2018-11-29T13:16:23.412Z,29.53
2018-11-29T13:18:58.323Z,29.50
2018-11-29T13:21:33.285Z,27.50
